createdAt,value
2022-09-12T00:03:44.734Z,8.18
2022-09-12T00:06:21.854Z,5.85
2022-09-12T00:08:49.400Z,5.25
2022-09-12T00:11:15.973Z,5.47
2022-09-12T00:13:42.900Z,5.72
2022-09-12T00:16:27.807Z,5.95
2022-09-12T00:18:54.596Z,5.18
2022-09-12T00:21:22.884Z,5.43
2022-09-12T00:23:50.590Z,5.90
2022-09-12T00:26:18.608Z,5.75
2022-09-12T00:28:45.604Z,6.00
2022-09-12T00:31:16.876Z,6.35
2022-09-12T00:33:43.890Z,5.63
2022-09-12T00:36:15.932Z,6.78
2022-09-12T00:38:43.760Z,6.82
2022-09-12T00:41:17.899Z,7.45
2022-09-12T00:43:53.151Z,7.65
2022-09-12T00:49:10.547Z,7.38
2022-09-12T00:51:38.124Z,7.07
2022-09-12T00:54:10.806Z,7.35
2022-09-12T00:56:39.790Z,6.95
2022-09-12T00:59:13.235Z,7.43
2022-09-12T01:01:42.078Z,7.35
2022-09-12T01:04:11.542Z,5.80
2022-09-12T01:06:41.877Z,7.10
2022-09-12T01:09:09.720Z,6.32
2022-09-12T01:11:38.774Z,5.43
2022-09-12T01:14:06.178Z,6.60
2022-09-12T01:16:36.062Z,6.10
2022-09-12T01:24:55.175Z,7.72
2022-09-12T01:28:01.498Z,8.15
2022-09-12T01:30:54.082Z,7.95
2022-09-12T01:44:24.149Z,5.78
2022-09-12T01:47:09.407Z,6.65
2022-09-12T01:50:07.395Z,6.00
2022-09-12T01:52:56.012Z,5.93
2022-09-12T01:55:30.541Z,5.32
2022-09-12T02:00:50.726Z,4.85
2022-09-12T02:03:24.167Z,5.28
2022-09-12T02:06:00.808Z,5.80
2022-09-12T02:08:33.386Z,5.43
2022-09-12T02:11:05.900Z,6.95
2022-09-12T02:13:41.100Z,5.28
2022-09-12T02:16:18.065Z,5.78
2022-09-12T02:18:50.633Z,5.25
2022-09-12T02:21:19.464Z,5.05
2022-09-12T02:23:51.302Z,5.35
2022-09-12T02:26:23.864Z,5.82
2022-09-12T02:28:50.910Z,4.85
2022-09-12T02:39:35.112Z,4.45
2022-09-12T02:42:03.077Z,4.03
2022-09-12T02:44:31.973Z,5.13
2022-09-12T02:47:05.565Z,4.50
2022-09-12T02:49:32.224Z,4.63
2022-09-12T02:52:00.097Z,5.40
2022-09-12T02:54:27.986Z,4.70
2022-09-12T02:56:54.612Z,4.43
2022-09-12T02:59:23.485Z,3.90
2022-09-12T03:29:20.263Z,8.55
2022-09-12T03:31:50.349Z,7.15
2022-09-12T03:34:17.108Z,6.82
2022-09-12T03:36:43.636Z,7.00
2022-09-12T03:39:10.167Z,7.00
2022-09-12T03:41:36.793Z,6.75
2022-09-12T03:44:03.765Z,7.53
2022-09-12T03:46:30.356Z,7.13
2022-09-12T03:48:56.933Z,8.23
2022-09-12T03:51:23.484Z,7.32
2022-09-12T03:53:50.011Z,8.48
2022-09-12T03:56:16.949Z,7.05
2022-09-12T03:58:43.707Z,8.43
2022-09-12T04:01:12.978Z,8.52
2022-09-12T04:03:42.627Z,8.63
2022-09-12T04:06:10.791Z,7.70
2022-09-12T04:08:38.530Z,7.30
2022-09-12T04:11:07.091Z,8.52
2022-09-12T04:13:35.291Z,6.70
2022-09-12T04:16:02.630Z,7.20
2022-09-12T04:18:29.214Z,7.35
2022-09-12T04:20:55.760Z,7.97
2022-09-12T04:23:22.624Z,7.78
2022-09-12T04:25:58.919Z,8.80
2022-09-12T04:28:26.581Z,7.95
2022-09-12T04:30:53.126Z,6.93
2022-09-12T04:33:19.785Z,7.03
2022-09-12T04:35:46.414Z,7.95
2022-09-12T04:38:12.941Z,7.35
2022-09-12T04:40:39.783Z,6.90
2022-09-12T04:43:09.225Z,6.25
2022-09-12T04:45:37.894Z,6.72
2022-09-12T04:48:04.660Z,6.20
2022-09-12T04:50:31.236Z,5.93
2022-09-12T04:52:57.790Z,6.68
2022-09-12T04:55:25.558Z,7.07
2022-09-12T04:57:53.045Z,5.95
2022-09-12T05:00:20.578Z,6.80
2022-09-12T05:02:47.460Z,6.90
2022-09-12T05:05:14.024Z,6.40
2022-09-12T05:07:40.854Z,6.78
2022-09-12T05:10:08.053Z,7.22
2022-09-12T05:12:34.799Z,6.43
2022-09-12T05:15:01.369Z,7.40
2022-09-12T05:17:30.110Z,7.15
2022-09-12T05:19:56.627Z,6.65
2022-09-12T05:22:23.196Z,5.80
2022-09-12T05:24:50.717Z,7.15
2022-09-12T05:27:17.452Z,6.93
2022-09-12T05:29:43.985Z,7.05
2022-09-12T05:32:12.475Z,6.50
2022-09-12T05:34:40.218Z,5.97
2022-09-12T05:37:06.769Z,9.38
2022-09-12T05:39:33.704Z,9.48
2022-09-12T05:42:00.279Z,9.48
2022-09-12T05:44:26.921Z,8.93
2022-09-12T05:46:53.692Z,9.52
2022-09-12T05:49:21.563Z,9.93
2022-09-12T05:51:48.165Z,8.95
2022-09-12T05:54:17.942Z,10.35
2022-09-12T05:56:45.454Z,9.38
2022-09-12T05:59:18.156Z,9.68
2022-09-12T06:01:45.654Z,9.25
2022-09-12T06:04:12.308Z,9.20
2022-09-12T06:06:42.499Z,8.43
2022-09-12T06:09:09.994Z,8.88
2022-09-12T06:11:40.802Z,8.48
2022-09-12T06:14:08.739Z,8.70
2022-09-12T06:16:35.670Z,8.40
2022-09-12T06:19:06.975Z,8.07
2022-09-12T06:21:35.403Z,8.93
2022-09-12T06:24:02.488Z,8.23
2022-09-12T06:26:29.521Z,9.65
2022-09-12T06:28:58.252Z,9.38
2022-09-12T06:31:29.450Z,9.93
2022-09-12T06:33:57.220Z,9.32
2022-09-12T06:36:27.964Z,9.20
2022-09-12T06:38:57.200Z,9.63
2022-09-12T06:41:25.280Z,8.30
2022-09-12T06:43:52.085Z,7.55
2022-09-12T06:46:19.197Z,8.80
2022-09-12T06:48:45.869Z,9.55
2022-09-12T06:51:14.837Z,9.45
2022-09-12T06:53:42.297Z,8.70
2022-09-12T06:56:12.051Z,8.70
2022-09-12T06:58:39.089Z,10.05
2022-09-12T07:03:44.348Z,7.28
2022-09-12T07:06:13.865Z,7.28
2022-09-12T07:08:41.116Z,6.88
2022-09-12T07:13:55.245Z,8.88
2022-09-12T07:16:22.231Z,8.10
2022-09-12T07:18:52.276Z,8.02
2022-09-12T07:21:18.896Z,7.93
2022-09-12T07:23:45.696Z,7.45
2022-09-12T07:26:14.192Z,7.53
2022-09-12T07:28:41.233Z,7.30
2022-09-12T07:31:11.196Z,8.10
2022-09-12T07:33:39.074Z,5.15
2022-09-12T07:36:08.790Z,7.03
2022-09-12T07:38:35.372Z,8.07
2022-09-12T07:41:01.955Z,6.78
2022-09-12T07:43:28.681Z,6.43
2022-09-12T07:45:56.982Z,6.32
2022-09-12T07:48:23.764Z,6.60
2022-09-12T07:51:08.356Z,7.68
2022-09-12T07:53:38.417Z,7.05
2022-09-12T07:56:06.597Z,5.47
2022-09-12T07:58:34.827Z,5.50
2022-09-12T08:01:03.907Z,6.53
2022-09-12T08:03:30.504Z,7.07
2022-09-12T08:06:05.001Z,5.85
2022-09-12T08:08:31.992Z,6.10
2022-09-12T08:11:00.634Z,6.47
2022-09-12T08:13:28.343Z,5.63
2022-09-12T08:16:05.986Z,3.95
2022-09-12T08:18:33.001Z,4.53
2022-09-12T08:21:01.297Z,4.72
2022-09-12T08:23:29.358Z,5.35
2022-09-12T08:25:58.038Z,4.95
2022-09-12T08:28:26.348Z,4.18
2022-09-12T08:30:54.162Z,4.13
2022-09-12T08:33:20.977Z,5.13
2022-09-12T08:35:47.707Z,4.00
2022-09-12T08:38:14.252Z,4.72
2022-09-12T08:46:13.754Z,3.53
2022-09-12T08:48:42.736Z,2.70
2022-09-12T08:51:13.162Z,3.22
2022-09-12T08:53:41.302Z,4.65
2022-09-12T08:56:11.754Z,3.30
2022-09-12T08:58:42.092Z,3.22
2022-09-12T09:09:31.043Z,2.45
2022-09-12T09:23:23.205Z,2.58
2022-09-12T09:31:17.872Z,2.05
2022-09-12T09:33:48.146Z,1.90
2022-09-12T09:36:25.190Z,1.73
2022-09-12T09:39:05.790Z,2.15
2022-09-12T09:41:52.628Z,2.10
2022-09-12T09:44:19.459Z,2.00
2022-09-12T09:46:47.281Z,1.85
2022-09-12T09:49:16.234Z,1.83
2022-09-12T09:51:42.922Z,2.28
2022-09-12T09:56:46.252Z,1.95
2022-09-12T09:59:33.882Z,1.73
2022-09-12T10:04:41.531Z,4.03
2022-09-12T10:07:18.833Z,2.75
2022-09-12T10:10:05.862Z,2.58
2022-09-12T10:12:32.412Z,2.72
2022-09-12T10:15:01.967Z,2.65
2022-09-12T10:17:42.117Z,2.88
2022-09-12T10:25:58.406Z,1.80
2022-09-12T10:28:35.650Z,1.80
2022-09-12T10:31:02.818Z,1.42
2022-09-12T10:33:29.995Z,2.17
2022-09-12T10:35:57.123Z,2.13
2022-09-12T10:38:26.858Z,2.30
2022-09-12T10:43:39.721Z,2.72
2022-09-12T10:46:28.381Z,3.08
2022-09-12T10:49:24.223Z,3.60
2022-09-12T10:51:52.891Z,3.78
2022-09-12T10:54:22.347Z,3.70
2022-09-12T11:05:23.002Z,2.08
2022-09-12T11:16:44.768Z,1.45
2022-09-12T12:16:43.765Z,1.70
2022-09-12T12:19:50.960Z,1.95
2022-09-12T12:27:56.333Z,2.15
2022-09-12T13:20:28.301Z,3.63
2022-09-12T13:22:56.811Z,4.05
2022-09-12T13:28:18.431Z,2.30
2022-09-12T13:30:56.309Z,4.63
2022-09-12T13:44:32.864Z,4.07
2022-09-12T13:47:01.756Z,3.78
2022-09-12T13:49:38.646Z,3.67
2022-09-12T13:52:09.507Z,3.20
2022-09-12T13:54:39.058Z,2.42
2022-09-12T13:57:06.312Z,3.78
2022-09-12T13:59:42.582Z,4.18
2022-09-12T14:02:20.491Z,3.90
2022-09-12T14:05:08.620Z,3.88
2022-09-12T14:07:45.862Z,3.97
2022-09-12T14:10:18.434Z,5.22
2022-09-12T14:12:50.785Z,3.33
2022-09-12T14:15:24.078Z,5.13
2022-09-12T14:17:53.805Z,4.00
2022-09-12T14:20:23.381Z,3.35
2022-09-12T14:22:52.493Z,4.35
2022-09-12T14:25:22.258Z,3.25
2022-09-12T14:27:53.937Z,3.42
2022-09-12T14:35:44.488Z,3.75
2022-09-12T14:40:52.990Z,3.28
2022-09-12T14:46:14.114Z,4.05
2022-09-12T14:48:46.768Z,3.28
2022-09-12T14:51:21.371Z,3.72
2022-09-12T14:53:49.995Z,3.42
2022-09-12T14:56:16.969Z,3.30
2022-09-12T14:58:43.601Z,3.47
2022-09-12T15:09:12.215Z,3.58
2022-09-12T15:11:39.191Z,4.32
2022-09-12T15:14:12.783Z,3.85
2022-09-12T15:16:39.411Z,2.30
2022-09-12T15:19:05.988Z,4.75
2022-09-12T15:21:32.645Z,4.55
2022-09-12T15:23:59.192Z,3.85
2022-09-12T15:26:27.581Z,3.67
2022-09-12T15:28:54.124Z,3.15
2022-09-12T15:31:31.346Z,3.95
2022-09-12T15:34:01.689Z,4.13
2022-09-12T15:36:29.216Z,4.10
2022-09-12T15:38:56.188Z,3.90
2022-09-12T15:44:06.730Z,2.70
2022-09-12T15:46:33.345Z,2.20
2022-09-12T15:49:00.017Z,2.55
2022-09-12T15:51:26.604Z,2.50
2022-09-12T15:53:53.357Z,2.20
2022-09-12T15:56:21.438Z,3.08
2022-09-12T15:58:59.222Z,2.30
2022-09-12T16:01:27.930Z,2.63
2022-09-12T16:03:54.605Z,2.75
2022-09-12T16:06:22.254Z,2.13
2022-09-12T16:08:49.226Z,2.38
2022-09-12T16:11:23.049Z,2.40
2022-09-12T16:13:49.758Z,2.80
2022-09-12T16:16:16.326Z,2.63
2022-09-12T16:18:43.166Z,2.28
2022-09-12T16:21:14.691Z,3.47
2022-09-12T16:23:46.626Z,2.72
2022-09-12T16:26:13.931Z,2.80
2022-09-12T16:28:40.551Z,2.97
2022-09-12T16:31:09.164Z,2.80
2022-09-12T16:33:38.228Z,2.70
2022-09-12T16:36:08.557Z,2.40
2022-09-12T16:38:41.134Z,2.92
2022-09-12T16:41:08.024Z,3.10
2022-09-12T16:43:35.576Z,2.50
2022-09-12T16:46:08.807Z,3.20
2022-09-12T16:48:36.244Z,2.78
2022-09-12T16:51:05.365Z,2.88
2022-09-12T16:53:34.893Z,3.38
2022-09-12T16:56:01.666Z,4.35
2022-09-12T16:58:28.325Z,3.90
2022-09-12T17:01:14.601Z,3.08
2022-09-12T17:03:41.529Z,3.72
2022-09-12T17:06:10.553Z,3.17
2022-09-12T17:08:39.789Z,3.38
2022-09-12T17:11:08.966Z,3.30
2022-09-12T17:14:00.262Z,3.65
2022-09-12T17:16:23.272Z,3.35
2022-09-12T17:18:51.355Z,4.03
2022-09-12T17:21:18.613Z,4.05
2022-09-12T17:23:45.927Z,3.75
2022-09-12T17:26:13.295Z,3.58
2022-09-12T17:28:40.213Z,3.78
2022-09-12T17:31:09.402Z,4.18
2022-09-12T17:33:36.946Z,4.30
2022-09-12T17:36:09.318Z,4.28
2022-09-12T17:38:38.027Z,4.05
2022-09-12T17:41:11.384Z,4.38
2022-09-12T17:43:38.122Z,3.95
2022-09-12T17:46:05.381Z,3.78
2022-09-12T17:48:32.535Z,3.28
2022-09-12T17:50:59.395Z,4.13
2022-09-12T17:53:25.989Z,3.88
2022-09-12T17:55:54.442Z,3.83
2022-09-12T17:58:21.033Z,4.15
2022-09-12T18:01:07.525Z,3.60
2022-09-12T18:03:35.204Z,3.50
2022-09-12T18:06:01.961Z,3.25
2022-09-12T18:08:28.473Z,3.25
2022-09-12T18:11:05.659Z,3.72
2022-09-12T18:13:33.424Z,3.50
2022-09-12T18:16:05.596Z,3.42
2022-09-12T18:18:33.966Z,3.30
2022-09-12T18:21:01.117Z,3.78
2022-09-12T18:23:27.889Z,3.92
2022-09-12T18:26:00.224Z,4.07
2022-09-12T18:28:27.153Z,3.92
2022-09-12T18:30:53.774Z,3.90
2022-09-12T18:33:23.934Z,4.25
2022-09-12T18:35:50.877Z,4.03
2022-09-12T18:38:17.954Z,4.82
2022-09-12T18:40:44.554Z,4.20
2022-09-12T18:43:31.011Z,4.55
2022-09-12T18:46:02.169Z,4.20
2022-09-12T18:48:31.530Z,4.43
2022-09-12T18:51:03.586Z,4.38
2022-09-12T18:53:30.130Z,5.35
2022-09-12T18:58:43.270Z,4.32
2022-09-12T19:01:13.805Z,5.53
2022-09-12T19:03:40.983Z,4.63
2022-09-12T19:06:11.852Z,4.82
2022-09-12T19:08:38.998Z,5.03
2022-09-12T19:11:06.605Z,4.88
2022-09-12T19:13:36.039Z,4.43
2022-09-12T19:16:04.730Z,5.43
2022-09-12T19:18:33.478Z,5.07
2022-09-12T19:21:01.423Z,5.07
2022-09-12T19:23:28.050Z,5.10
2022-09-12T19:25:57.881Z,5.00
2022-09-12T19:28:24.442Z,5.10
2022-09-12T19:30:51.122Z,4.82
2022-09-12T19:33:17.912Z,4.85
2022-09-12T19:35:44.640Z,5.07
2022-09-12T19:38:11.331Z,4.65
2022-09-12T19:40:39.654Z,5.70
2022-09-12T19:43:07.372Z,5.07
2022-09-12T19:45:34.200Z,5.88
2022-09-12T19:48:01.005Z,5.18
2022-09-12T19:50:28.206Z,4.47
2022-09-12T19:52:54.700Z,5.47
2022-09-12T19:55:22.268Z,4.72
2022-09-12T19:57:48.798Z,4.57
2022-09-12T20:00:15.415Z,4.50
2022-09-12T20:02:42.055Z,5.68
2022-09-12T20:05:09.079Z,4.50
2022-09-12T20:07:35.634Z,4.53
2022-09-12T20:10:02.172Z,4.03
2022-09-12T20:12:28.756Z,4.70
2022-09-12T20:14:55.306Z,3.83
2022-09-12T20:17:21.841Z,3.88
2022-09-12T20:19:52.785Z,3.28
2022-09-12T20:22:19.306Z,3.60
2022-09-12T20:24:45.914Z,3.45
2022-09-12T20:27:12.707Z,3.47
2022-09-12T20:29:39.241Z,3.47
2022-09-12T20:32:05.826Z,2.72
2022-09-12T20:34:32.388Z,3.67
2022-09-12T20:37:00.236Z,3.20
2022-09-12T20:39:27.423Z,3.63
2022-09-12T20:41:53.947Z,3.47
2022-09-12T20:44:20.573Z,3.30
2022-09-12T20:46:47.448Z,4.22
2022-09-12T20:49:14.090Z,3.85
2022-09-12T20:51:40.637Z,3.58
2022-09-12T20:54:07.928Z,3.42
2022-09-12T20:56:36.622Z,3.17
2022-09-12T20:59:04.650Z,4.05
2022-09-12T21:01:31.929Z,3.72
2022-09-12T21:04:00.885Z,3.67
2022-09-12T21:06:27.870Z,3.83
2022-09-12T21:08:58.664Z,3.88
2022-09-12T21:11:25.675Z,3.42
2022-09-12T21:13:53.348Z,3.85
2022-09-12T21:16:22.421Z,4.00
2022-09-12T21:18:58.521Z,4.22
2022-09-12T21:21:25.961Z,3.95
2022-09-12T21:23:55.210Z,5.00
2022-09-12T21:26:21.742Z,4.55
2022-09-12T21:28:48.633Z,4.95
2022-09-12T21:31:15.231Z,4.18
2022-09-12T21:33:41.863Z,4.97
2022-09-12T21:36:09.588Z,4.60
2022-09-12T21:38:36.152Z,4.50
2022-09-12T21:41:06.076Z,4.63
2022-09-12T21:43:32.679Z,4.60
2022-09-12T21:46:00.121Z,4.65
2022-09-12T21:48:26.916Z,3.92
2022-09-12T21:50:53.605Z,4.28
2022-09-12T21:53:20.213Z,4.53
2022-09-12T21:55:46.729Z,4.60
2022-09-12T21:58:13.305Z,5.05
2022-09-12T22:00:41.401Z,4.18
2022-09-12T22:03:10.411Z,4.38
2022-09-12T22:05:40.246Z,4.80
2022-09-12T22:08:08.417Z,4.68
2022-09-12T22:10:35.597Z,4.60
2022-09-12T22:13:02.647Z,5.32
2022-09-12T22:15:40.525Z,4.80
2022-09-12T22:18:07.744Z,4.35
2022-09-12T22:20:34.274Z,4.70
2022-09-12T22:23:24.576Z,4.80
2022-09-12T22:25:54.451Z,4.35
2022-09-12T22:30:48.657Z,3.83
2022-09-12T22:33:15.214Z,3.78
2022-09-12T22:35:42.512Z,2.88
2022-09-12T22:38:09.223Z,3.63
2022-09-12T22:40:35.945Z,2.63
2022-09-12T22:43:02.528Z,3.00
2022-09-12T22:45:29.092Z,2.08
2022-09-12T22:47:59.194Z,2.67
2022-09-12T22:50:27.679Z,2.17
2022-09-12T22:52:54.295Z,2.63
2022-09-12T22:55:21.027Z,1.75
2022-09-12T22:57:47.586Z,2.05
2022-09-12T23:00:14.959Z,1.83
2022-09-12T23:02:41.609Z,1.92
2022-09-12T23:05:08.501Z,1.67
2022-09-12T23:07:35.324Z,1.70
2022-09-12T23:10:01.916Z,2.10
2022-09-12T23:12:28.501Z,1.98
2022-09-12T23:14:55.066Z,1.65
2022-09-12T23:17:21.648Z,1.25
2022-09-12T23:19:48.477Z,1.35
2022-09-12T23:22:15.061Z,1.33
2022-09-12T23:24:41.801Z,1.67
2022-09-12T23:27:08.960Z,2.08
2022-09-12T23:29:35.672Z,2.08
2022-09-12T23:32:03.714Z,1.10
2022-09-12T23:34:33.960Z,1.02
2022-09-12T23:37:00.598Z,1.45
2022-09-12T23:39:27.342Z,1.15
2022-09-12T23:41:53.969Z,0.80
2022-09-12T23:44:20.524Z,1.63
2022-09-12T23:46:47.047Z,1.00
2022-09-12T23:49:13.627Z,0.93
2022-09-12T23:51:40.171Z,1.00
2022-09-12T23:54:06.758Z,1.23
2022-09-12T23:56:33.290Z,1.45
2022-09-12T23:58:59.850Z,1.83
